createdAt,value
2018-12-12T00:01:06.296Z,99.90
2018-12-12T00:03:34.566Z,99.90
2018-12-12T00:06:02.844Z,99.80
2018-12-12T00:08:31.088Z,99.80
2018-12-12T00:10:59.485Z,99.70
2018-12-12T00:13:27.911Z,99.70
2018-12-12T00:15:56.211Z,99.80
2018-12-12T00:18:24.687Z,99.60
2018-12-12T00:20:52.930Z,99.60
2018-12-12T00:23:21.234Z,99.60
2018-12-12T00:25:49.490Z,99.50
2018-12-12T00:28:17.768Z,99.50
2018-12-12T00:30:46.078Z,99.40
2018-12-12T00:33:14.309Z,99.50
2018-12-12T00:35:42.609Z,99.40
2018-12-12T00:38:11.114Z,99.40
2018-12-12T00:40:39.348Z,99.30
2018-12-12T00:43:07.664Z,99.30
2018-12-12T00:45:36.228Z,99.20
2018-12-12T00:48:04.571Z,99.10
2018-12-12T00:50:32.802Z,99.20
2018-12-12T00:53:01.130Z,99.10
2018-12-12T00:55:29.397Z,99.30
2018-12-12T00:57:58.128Z,99.20
2018-12-12T01:00:26.536Z,99.10
2018-12-12T01:02:54.820Z,99.30
2018-12-12T01:05:23.090Z,99.30
2018-12-12T01:07:51.363Z,99.40
2018-12-12T01:10:19.714Z,99.60
2018-12-12T01:12:48.093Z,99.60
2018-12-12T01:15:16.342Z,99.60
2018-12-12T01:17:44.622Z,99.70
2018-12-12T01:20:12.948Z,99.60
2018-12-12T01:22:41.248Z,99.50
2018-12-12T01:25:09.507Z,99.70
2018-12-12T01:27:37.775Z,99.50
2018-12-12T01:30:06.245Z,99.60
2018-12-12T01:32:34.669Z,99.50
2018-12-12T01:35:02.973Z,99.70
2018-12-12T01:37:31.225Z,99.70
2018-12-12T01:40:00.719Z,99.70
2018-12-12T01:42:29.236Z,99.60
2018-12-12T01:44:57.815Z,99.60
2018-12-12T01:47:26.165Z,99.60
2018-12-12T01:49:54.462Z,99.50
2018-12-12T01:52:22.796Z,99.50
2018-12-12T01:54:51.072Z,99.50
2018-12-12T01:57:19.370Z,99.50
2018-12-12T01:59:47.671Z,99.50
2018-12-12T02:02:15.932Z,99.50
2018-12-12T02:04:44.164Z,99.60
2018-12-12T02:07:12.438Z,99.50
2018-12-12T02:09:40.730Z,99.60
2018-12-12T02:12:09.053Z,99.50
2018-12-12T02:14:37.600Z,99.60
2018-12-12T02:17:06.026Z,99.50
2018-12-12T02:19:34.366Z,99.70
2018-12-12T02:22:02.702Z,99.60
2018-12-12T02:24:30.988Z,99.60
2018-12-12T02:26:59.265Z,99.50
2018-12-12T02:29:27.532Z,99.50
2018-12-12T02:31:55.905Z,99.50
2018-12-12T02:34:24.166Z,99.60
2018-12-12T02:36:52.479Z,99.40
2018-12-12T02:39:20.732Z,99.50
2018-12-12T02:41:49.049Z,99.60
2018-12-12T02:44:17.406Z,99.70
2018-12-12T02:46:45.762Z,99.60
2018-12-12T02:49:14.006Z,99.60
2018-12-12T02:51:42.236Z,99.60
2018-12-12T02:54:10.541Z,99.60
2018-12-12T02:56:38.946Z,99.50
2018-12-12T02:59:07.221Z,99.60
2018-12-12T03:01:35.601Z,99.50
2018-12-12T03:04:03.833Z,99.60
2018-12-12T03:06:32.182Z,99.60
2018-12-12T03:09:00.431Z,99.60
2018-12-12T03:11:28.700Z,99.30
2018-12-12T03:13:57.054Z,99.50
2018-12-12T03:16:25.302Z,99.50
2018-12-12T03:18:54.109Z,99.50
2018-12-12T03:21:22.644Z,99.40
2018-12-12T03:23:50.907Z,99.40
2018-12-12T03:26:19.211Z,99.40
2018-12-12T03:28:47.440Z,99.40
2018-12-12T03:31:15.737Z,99.40
2018-12-12T03:33:44.029Z,99.40
2018-12-12T03:36:12.307Z,99.50
2018-12-12T03:38:40.598Z,99.50
2018-12-12T03:41:08.845Z,99.40
2018-12-12T03:43:37.099Z,99.50
2018-12-12T03:46:05.369Z,99.50
2018-12-12T03:48:33.640Z,99.50
2018-12-12T03:51:01.981Z,99.50
2018-12-12T03:53:30.632Z,99.50
2018-12-12T03:55:59.016Z,99.50
2018-12-12T03:58:27.290Z,99.50
2018-12-12T04:00:55.582Z,99.50
2018-12-12T04:03:23.944Z,99.40
2018-12-12T04:05:52.722Z,99.50
2018-12-12T04:08:21.013Z,99.50
2018-12-12T04:10:49.230Z,99.40
2018-12-12T04:13:17.515Z,99.50
2018-12-12T04:15:45.867Z,99.50
2018-12-12T04:18:14.188Z,99.50
2018-12-12T04:20:42.761Z,99.60
2018-12-12T04:23:11.128Z,99.50
2018-12-12T04:25:39.419Z,99.60
2018-12-12T04:28:07.702Z,99.90
2018-12-12T04:30:35.972Z,99.80
2018-12-12T04:33:04.250Z,99.80
2018-12-12T04:35:32.981Z,99.80
2018-12-12T04:38:01.248Z,99.80
2018-12-12T04:40:29.555Z,99.90
2018-12-12T04:42:57.805Z,99.90
2018-12-12T04:45:26.072Z,99.90
2018-12-12T04:47:54.373Z,99.80
2018-12-12T04:50:22.681Z,99.90
2018-12-12T04:52:51.043Z,99.80
2018-12-12T04:55:19.293Z,99.90
2018-12-12T04:57:47.630Z,99.70
2018-12-12T05:00:16.052Z,99.70
2018-12-12T05:02:44.908Z,99.50
2018-12-12T05:05:13.261Z,99.70
2018-12-12T05:07:41.633Z,99.80
2018-12-12T05:10:09.922Z,99.80
2018-12-12T05:12:38.262Z,99.50
2018-12-12T05:15:06.653Z,99.80
2018-12-12T05:17:35.035Z,99.80
2018-12-12T05:20:03.559Z,99.80
2018-12-12T05:22:31.815Z,99.80
2018-12-12T05:25:00.117Z,99.60
2018-12-12T05:30:11.885Z,99.90
2018-12-12T05:32:40.318Z,99.90
2018-12-12T05:35:08.675Z,99.90
2018-12-12T05:37:37.550Z,99.90
2018-12-12T05:40:06.127Z,99.90
2018-12-12T05:42:34.603Z,99.90
2018-12-12T05:45:02.903Z,99.90
2018-12-12T05:47:31.567Z,99.90
2018-12-12T05:49:59.947Z,99.90
2018-12-12T05:52:28.236Z,99.90
2018-12-12T05:54:56.510Z,99.90
2018-12-12T05:57:24.771Z,99.90
2018-12-12T05:59:53.118Z,99.90
2018-12-12T06:02:21.369Z,99.90
2018-12-12T06:04:49.694Z,99.90
2018-12-12T06:07:17.982Z,99.90
2018-12-12T06:09:46.308Z,99.90
2018-12-12T06:12:14.605Z,99.90
2018-12-12T06:14:42.971Z,99.90
2018-12-12T06:17:11.326Z,99.90
2018-12-12T06:19:40.716Z,99.90
2018-12-12T06:22:09.714Z,99.90
2018-12-12T06:24:38.012Z,99.90
2018-12-12T06:27:07.604Z,99.90
2018-12-12T06:29:36.104Z,99.90
2018-12-12T06:32:04.534Z,99.90
2018-12-12T06:34:32.829Z,99.90
2018-12-12T06:37:01.140Z,99.90
2018-12-12T06:39:29.409Z,99.90
2018-12-12T06:41:57.744Z,99.90
2018-12-12T06:44:26.088Z,99.90
2018-12-12T06:46:55.246Z,99.90
2018-12-12T06:49:23.952Z,99.90
2018-12-12T06:51:52.357Z,99.90
2018-12-12T06:54:20.642Z,99.90
2018-12-12T06:56:49.030Z,99.90
2018-12-12T06:59:17.266Z,99.90
2018-12-12T07:01:45.690Z,99.90
2018-12-12T07:04:13.965Z,99.90
2018-12-12T07:06:42.245Z,99.90
2018-12-12T07:09:10.516Z,99.90
2018-12-12T07:11:38.731Z,99.90
2018-12-12T07:14:07.057Z,99.90
2018-12-12T07:16:35.362Z,99.90
2018-12-12T07:19:03.710Z,99.90
2018-12-12T07:21:31.991Z,99.90
2018-12-12T07:24:00.366Z,99.90
2018-12-12T07:26:28.632Z,99.90
2018-12-12T07:28:56.984Z,99.90
2018-12-12T07:31:25.294Z,99.90
2018-12-12T07:33:54.033Z,99.90
2018-12-12T07:36:22.306Z,99.90
2018-12-12T07:38:50.571Z,99.90
2018-12-12T07:41:18.861Z,99.90
2018-12-12T07:43:47.205Z,99.90
2018-12-12T07:46:15.465Z,99.90
2018-12-12T07:48:43.684Z,99.90
2018-12-12T07:51:18.547Z,99.90
2018-12-12T07:53:46.787Z,99.90
2018-12-12T07:56:15.055Z,99.90
2018-12-12T07:58:43.272Z,99.90
2018-12-12T08:01:11.490Z,99.90
2018-12-12T08:03:39.810Z,99.90
2018-12-12T08:06:08.123Z,99.90
2018-12-12T08:08:36.657Z,99.90
2018-12-12T08:11:04.985Z,99.90
2018-12-12T08:13:33.280Z,99.90
2018-12-12T08:16:02.101Z,99.90
2018-12-12T08:18:30.340Z,99.90
2018-12-12T08:20:58.653Z,99.90
2018-12-12T08:23:27.313Z,99.90
2018-12-12T08:25:55.604Z,99.90
2018-12-12T08:28:23.871Z,99.90
2018-12-12T08:30:52.203Z,99.90
2018-12-12T08:33:20.416Z,99.90
2018-12-12T08:35:48.707Z,99.90
2018-12-12T08:38:16.984Z,99.90
2018-12-12T08:40:45.313Z,99.90
2018-12-12T08:43:13.567Z,99.90
2018-12-12T08:45:41.842Z,99.90
2018-12-12T08:48:10.294Z,99.90
2018-12-12T08:50:38.632Z,99.90
2018-12-12T08:53:06.876Z,99.70
2018-12-12T08:55:36.051Z,99.80
2018-12-12T08:58:04.441Z,99.80
2018-12-12T09:00:32.798Z,99.70
2018-12-12T09:03:01.102Z,99.40
2018-12-12T09:05:29.405Z,99.20
2018-12-12T09:07:57.635Z,98.60
2018-12-12T09:10:26.004Z,98.20
2018-12-12T09:12:54.313Z,98.30
2018-12-12T09:15:22.606Z,97.80
2018-12-12T09:17:50.990Z,97.70
2018-12-12T09:20:19.440Z,97.30
2018-12-12T09:22:47.770Z,96.70
2018-12-12T09:25:16.083Z,96.60
2018-12-12T09:27:44.300Z,96.40
2018-12-12T09:30:12.716Z,96.40
2018-12-12T09:32:41.041Z,96.00
2018-12-12T09:35:09.492Z,95.70
2018-12-12T09:37:37.843Z,95.80
2018-12-12T09:40:06.288Z,95.90
2018-12-12T09:42:34.619Z,95.50
2018-12-12T09:45:02.905Z,95.60
2018-12-12T09:47:31.262Z,95.00
2018-12-12T09:49:59.521Z,94.90
2018-12-12T09:52:27.845Z,94.80
2018-12-12T09:54:56.120Z,95.00
2018-12-12T09:57:24.579Z,95.10
2018-12-12T09:59:53.194Z,94.90
2018-12-12T10:02:21.829Z,95.00
2018-12-12T10:04:50.427Z,94.60
2018-12-12T10:07:19.094Z,93.90
2018-12-12T10:09:47.851Z,94.10
2018-12-12T10:12:16.575Z,94.20
2018-12-12T10:14:45.504Z,93.60
2018-12-12T10:17:14.584Z,93.60
2018-12-12T10:19:43.559Z,93.00
2018-12-12T10:22:11.904Z,93.10
2018-12-12T10:24:40.215Z,93.30
2018-12-12T10:27:08.432Z,93.20
2018-12-12T10:29:36.728Z,92.90
2018-12-12T10:32:05.487Z,93.10
2018-12-12T10:34:33.888Z,92.50
2018-12-12T10:37:02.185Z,92.30
2018-12-12T10:39:30.444Z,92.10
2018-12-12T10:41:58.758Z,92.10
2018-12-12T10:44:27.096Z,92.40
2018-12-12T10:46:55.399Z,92.30
2018-12-12T10:49:23.770Z,92.50
2018-12-12T10:51:52.628Z,91.60
2018-12-12T10:54:21.642Z,91.80
2018-12-12T10:56:50.568Z,91.50
2018-12-12T10:59:18.816Z,91.90
2018-12-12T11:01:47.237Z,92.00
2018-12-12T11:04:20.524Z,92.00
2018-12-12T11:06:49.315Z,91.60
2018-12-12T11:09:18.300Z,91.40
2018-12-12T11:11:47.450Z,91.10
2018-12-12T11:14:16.574Z,91.50
2018-12-12T11:16:46.036Z,91.50
2018-12-12T11:19:15.302Z,91.30
2018-12-12T11:21:44.335Z,91.30
2018-12-12T11:24:13.075Z,91.20
2018-12-12T11:26:41.633Z,89.10
2018-12-12T11:29:10.382Z,90.20
2018-12-12T11:31:38.933Z,90.00
2018-12-12T11:34:07.618Z,89.80
2018-12-12T11:36:36.126Z,89.80
2018-12-12T11:39:06.095Z,89.30
2018-12-12T11:41:34.766Z,88.30
2018-12-12T11:44:03.448Z,89.30
2018-12-12T11:46:32.053Z,90.90
2018-12-12T11:49:00.596Z,89.00
2018-12-12T11:51:29.175Z,87.10
2018-12-12T11:53:57.658Z,86.90
2018-12-12T11:56:26.274Z,86.00
2018-12-12T11:58:55.134Z,86.40
2018-12-12T12:01:23.716Z,86.20
2018-12-12T12:03:56.701Z,86.20
2018-12-12T12:06:23.309Z,84.90
2018-12-12T12:08:52.051Z,84.30
2018-12-12T12:11:20.888Z,83.30
2018-12-12T12:13:49.532Z,84.00
2018-12-12T12:16:18.213Z,84.50
2018-12-12T12:18:46.943Z,85.00
2018-12-12T12:21:15.681Z,83.60
2018-12-12T12:23:44.393Z,83.30
2018-12-12T12:26:13.581Z,83.10
2018-12-12T12:28:42.101Z,83.70
2018-12-12T12:31:10.721Z,82.40
2018-12-12T12:33:40.349Z,81.10
2018-12-12T12:36:09.339Z,81.40
2018-12-12T12:38:37.891Z,80.30
2018-12-12T12:41:06.489Z,81.10
2018-12-12T12:43:34.982Z,81.00
2018-12-12T12:46:03.966Z,80.60
2018-12-12T12:48:42.352Z,80.30
2018-12-12T12:51:11.969Z,79.00
2018-12-12T12:53:40.516Z,79.50
2018-12-12T12:56:09.113Z,80.00
2018-12-12T12:58:37.616Z,80.10
2018-12-12T13:01:06.219Z,80.70
2018-12-12T13:03:34.866Z,81.20
2018-12-12T13:06:03.507Z,80.50
2018-12-12T13:08:31.962Z,80.50
2018-12-12T13:11:00.480Z,80.50
2018-12-12T13:13:29.178Z,80.40
2018-12-12T13:15:58.343Z,81.40
2018-12-12T13:18:27.305Z,81.60
2018-12-12T13:20:55.512Z,81.70
2018-12-12T13:23:23.842Z,80.90
2018-12-12T13:25:52.087Z,81.50
2018-12-12T13:28:20.330Z,81.00
2018-12-12T13:30:48.678Z,80.40
2018-12-12T13:33:16.907Z,80.60
2018-12-12T13:35:45.155Z,80.20
2018-12-12T13:38:13.633Z,80.30
2018-12-12T13:40:41.914Z,80.40
2018-12-12T13:43:10.198Z,80.20
2018-12-12T13:45:38.411Z,80.30
2018-12-12T13:48:06.646Z,80.60
2018-12-12T13:50:34.959Z,80.20
2018-12-12T13:53:03.195Z,80.40
2018-12-12T13:55:31.547Z,80.10
2018-12-12T13:57:59.835Z,80.70
2018-12-12T14:00:28.151Z,81.00
2018-12-12T14:02:56.424Z,80.90
2018-12-12T14:05:24.727Z,80.40
2018-12-12T14:07:52.946Z,80.90
2018-12-12T14:10:21.199Z,80.40
2018-12-12T14:12:49.431Z,80.50
2018-12-12T14:15:17.646Z,80.30
2018-12-12T14:17:45.895Z,80.60
2018-12-12T14:20:14.116Z,79.00
2018-12-12T14:22:42.430Z,78.20
2018-12-12T14:25:10.838Z,78.30
2018-12-12T14:27:39.154Z,78.50
2018-12-12T14:30:08.502Z,78.30
2018-12-12T14:32:36.806Z,79.10
2018-12-12T14:35:05.218Z,78.90
2018-12-12T14:37:33.621Z,78.60
2018-12-12T14:40:01.890Z,79.50
2018-12-12T14:42:30.259Z,79.60
2018-12-12T14:44:58.496Z,80.30
2018-12-12T14:47:26.739Z,81.00
2018-12-12T14:49:55.053Z,82.00
2018-12-12T14:52:23.307Z,82.10
2018-12-12T14:54:51.530Z,82.50
2018-12-12T14:57:19.784Z,83.10
2018-12-12T14:59:48.064Z,83.40
2018-12-12T15:02:16.305Z,84.10
2018-12-12T15:04:44.582Z,84.60
2018-12-12T15:07:12.788Z,85.50
2018-12-12T15:09:41.087Z,86.00
2018-12-12T15:12:09.318Z,86.60
2018-12-12T15:14:37.563Z,87.10
2018-12-12T15:17:05.881Z,87.30
2018-12-12T15:19:34.235Z,87.50
2018-12-12T15:22:02.607Z,87.80
2018-12-12T15:24:30.867Z,88.00
2018-12-12T15:26:59.185Z,88.30
2018-12-12T15:29:27.469Z,88.40
2018-12-12T15:31:55.755Z,88.70
2018-12-12T15:34:24.015Z,88.70
2018-12-12T15:36:52.304Z,88.80
2018-12-12T15:39:20.566Z,89.00
2018-12-12T15:41:48.873Z,89.20
2018-12-12T15:44:17.157Z,89.60
2018-12-12T15:46:45.439Z,89.80
2018-12-12T15:49:13.720Z,89.90
2018-12-12T15:51:41.961Z,90.00
2018-12-12T15:54:10.242Z,90.20
2018-12-12T15:56:38.559Z,90.40
2018-12-12T15:59:06.854Z,90.40
2018-12-12T16:01:35.100Z,90.40
2018-12-12T16:04:03.359Z,90.30
2018-12-12T16:06:31.601Z,90.60
2018-12-12T16:08:59.903Z,90.70
2018-12-12T16:11:28.144Z,90.80
2018-12-12T16:13:56.434Z,90.80
2018-12-12T16:16:24.697Z,90.80
2018-12-12T16:18:52.980Z,90.70
2018-12-12T16:21:21.207Z,90.80
2018-12-12T16:23:49.451Z,90.80
2018-12-12T16:26:18.062Z,91.10
2018-12-12T16:28:46.557Z,90.80
2018-12-12T16:31:14.829Z,90.80
2018-12-12T16:33:43.053Z,90.90
2018-12-12T16:36:11.319Z,91.10
2018-12-12T16:38:39.583Z,91.20
2018-12-12T16:41:07.971Z,91.10
2018-12-12T16:43:36.246Z,91.20
2018-12-12T16:46:04.558Z,91.30
2018-12-12T16:48:32.777Z,91.40
2018-12-12T16:51:01.034Z,91.70
2018-12-12T16:53:29.292Z,91.90
2018-12-12T16:55:57.547Z,91.90
2018-12-12T16:58:25.789Z,92.00
2018-12-12T17:00:54.102Z,92.10
2018-12-12T17:03:22.349Z,92.30
2018-12-12T17:05:50.689Z,92.60
2018-12-12T17:08:19.041Z,92.70
2018-12-12T17:10:47.256Z,92.80
2018-12-12T17:13:15.589Z,93.00
2018-12-12T17:15:43.819Z,93.10
2018-12-12T17:18:12.096Z,93.10
2018-12-12T17:20:40.341Z,93.20
2018-12-12T17:23:08.674Z,93.40
2018-12-12T17:25:36.918Z,93.50
2018-12-12T17:28:05.212Z,93.70
2018-12-12T17:30:33.559Z,93.80
2018-12-12T17:33:01.798Z,93.90
2018-12-12T17:35:30.022Z,94.00
2018-12-12T17:37:58.285Z,94.10
2018-12-12T17:40:26.671Z,94.00
2018-12-12T17:42:54.893Z,94.10
2018-12-12T17:45:23.122Z,94.20
2018-12-12T17:47:51.414Z,93.90
2018-12-12T17:50:19.744Z,93.90
2018-12-12T17:52:47.997Z,94.00
2018-12-12T17:55:16.472Z,93.90
2018-12-12T17:57:44.738Z,93.90
2018-12-12T18:00:13.126Z,93.90
2018-12-12T18:02:41.474Z,93.80
2018-12-12T18:05:15.109Z,93.70
2018-12-12T18:07:40.104Z,93.70
2018-12-12T18:10:08.461Z,93.70
2018-12-12T18:12:36.686Z,93.60
2018-12-12T18:15:05.203Z,93.70
2018-12-12T18:17:33.474Z,93.40
2018-12-12T18:20:01.793Z,93.50
2018-12-12T18:22:30.102Z,93.60
2018-12-12T18:24:58.462Z,93.80
2018-12-12T18:27:26.722Z,93.80
2018-12-12T18:29:54.972Z,93.80
2018-12-12T18:32:23.355Z,93.70
2018-12-12T18:34:51.614Z,93.70
2018-12-12T18:37:19.984Z,93.80
2018-12-12T18:39:48.221Z,93.80
2018-12-12T18:42:16.534Z,93.80
2018-12-12T18:44:44.768Z,94.00
2018-12-12T18:47:13.112Z,93.90
2018-12-12T18:49:41.459Z,94.00
2018-12-12T18:52:09.714Z,94.20
2018-12-12T18:54:37.948Z,94.70
2018-12-12T18:57:06.348Z,94.30
2018-12-12T18:59:34.679Z,94.30
2018-12-12T19:02:02.946Z,94.20
2018-12-12T19:04:31.305Z,94.40
2018-12-12T19:06:59.573Z,94.30
2018-12-12T19:09:27.922Z,94.40
2018-12-12T19:11:56.243Z,94.40
2018-12-12T19:14:24.531Z,94.50
2018-12-12T19:16:52.805Z,94.50
2018-12-12T19:19:21.074Z,94.50
2018-12-12T19:21:49.426Z,94.50
2018-12-12T19:24:17.738Z,94.50
2018-12-12T19:26:46.002Z,94.70
2018-12-12T19:29:14.371Z,94.40
2018-12-12T19:31:42.739Z,94.50
2018-12-12T19:34:11.047Z,94.50
2018-12-12T19:36:39.314Z,94.40
2018-12-12T19:39:08.561Z,94.10
2018-12-12T19:41:36.853Z,94.20
2018-12-12T19:44:05.146Z,93.80
2018-12-12T19:46:33.431Z,93.60
2018-12-12T19:49:01.703Z,93.10
2018-12-12T19:51:29.989Z,92.70
2018-12-12T19:53:58.389Z,92.20
2018-12-12T19:56:26.857Z,92.10
2018-12-12T19:58:55.110Z,91.90
2018-12-12T20:01:23.352Z,91.60
2018-12-12T20:03:51.742Z,91.40
2018-12-12T20:06:20.054Z,91.20
2018-12-12T20:08:48.750Z,91.10
2018-12-12T20:11:17.067Z,91.10
2018-12-12T20:13:45.830Z,91.10
2018-12-12T20:16:14.840Z,91.10
2018-12-12T20:18:43.595Z,90.70
2018-12-12T20:21:12.016Z,90.80
2018-12-12T20:23:40.427Z,91.00
2018-12-12T20:26:08.708Z,91.00
2018-12-12T20:28:36.974Z,91.20
2018-12-12T20:31:05.269Z,91.10
2018-12-12T20:33:33.564Z,91.10
2018-12-12T20:36:01.839Z,91.10
2018-12-12T20:38:30.059Z,91.00
2018-12-12T20:40:58.375Z,90.90
2018-12-12T20:43:26.636Z,91.10
2018-12-12T20:45:54.900Z,91.10
2018-12-12T20:48:23.241Z,91.20
2018-12-12T20:50:51.491Z,91.50
2018-12-12T20:53:19.760Z,91.60
2018-12-12T20:55:48.005Z,91.70
2018-12-12T20:58:16.254Z,91.90
2018-12-12T21:00:44.754Z,92.20
2018-12-12T21:03:13.012Z,92.10
2018-12-12T21:05:41.248Z,92.10
2018-12-12T21:08:09.505Z,91.90
2018-12-12T21:10:37.813Z,91.90
2018-12-12T21:13:06.289Z,91.90
2018-12-12T21:15:34.533Z,91.90
2018-12-12T21:18:02.793Z,91.80
2018-12-12T21:20:31.048Z,91.90
2018-12-12T21:22:59.281Z,91.90
2018-12-12T21:25:30.467Z,91.60
2018-12-12T21:27:58.732Z,91.90
2018-12-12T21:30:27.036Z,91.90
2018-12-12T21:35:33.775Z,91.60
2018-12-12T21:38:02.227Z,91.70
2018-12-12T21:40:30.572Z,91.80
2018-12-12T21:42:58.825Z,92.00
2018-12-12T21:45:27.135Z,92.30
2018-12-12T21:47:55.375Z,92.40
2018-12-12T21:50:23.619Z,92.60
2018-12-12T21:52:51.910Z,92.60
2018-12-12T21:55:20.174Z,92.50
2018-12-12T21:57:48.454Z,92.50
2018-12-12T22:00:16.759Z,92.50
2018-12-12T22:02:45.157Z,92.40
2018-12-12T22:05:13.415Z,92.40
2018-12-12T22:07:41.653Z,92.40
2018-12-12T22:10:09.981Z,92.30
2018-12-12T22:12:38.217Z,92.10
2018-12-12T22:15:06.797Z,92.20
2018-12-12T22:17:35.071Z,92.00
2018-12-12T22:20:03.437Z,91.90
2018-12-12T22:22:31.671Z,92.00
2018-12-12T22:24:59.937Z,92.00
2018-12-12T22:27:28.267Z,91.90
2018-12-12T22:29:56.623Z,92.00
2018-12-12T22:32:24.892Z,91.90
2018-12-12T22:34:53.168Z,92.00
2018-12-12T22:37:21.427Z,92.30
2018-12-12T22:39:49.704Z,92.30
2018-12-12T22:42:17.916Z,92.60
2018-12-12T22:44:46.196Z,92.50
2018-12-12T22:47:14.483Z,92.40
2018-12-12T22:49:42.723Z,92.30
2018-12-12T22:52:10.976Z,92.30
2018-12-12T22:54:39.334Z,92.40
2018-12-12T22:57:07.617Z,92.60
2018-12-12T22:59:35.848Z,92.60
2018-12-12T23:02:04.260Z,92.70
2018-12-12T23:04:32.845Z,92.80
2018-12-12T23:07:01.086Z,93.00
2018-12-12T23:09:29.371Z,93.00
2018-12-12T23:11:57.647Z,93.00
2018-12-12T23:14:25.915Z,93.20
2018-12-12T23:17:00.795Z,93.30
2018-12-12T23:19:29.045Z,93.60
2018-12-12T23:21:57.331Z,93.30
2018-12-12T23:24:25.590Z,93.50
2018-12-12T23:26:53.941Z,93.50
2018-12-12T23:29:22.196Z,93.70
2018-12-12T23:31:50.458Z,93.50
2018-12-12T23:34:18.725Z,93.70
2018-12-12T23:36:46.949Z,94.00
2018-12-12T23:39:15.299Z,94.30
2018-12-12T23:41:43.518Z,94.20
2018-12-12T23:44:11.837Z,94.30
2018-12-12T23:46:40.085Z,94.00
2018-12-12T23:49:08.420Z,93.80
2018-12-12T23:51:36.663Z,93.90
2018-12-12T23:54:04.934Z,94.00
2018-12-12T23:56:33.158Z,94.20
2018-12-12T23:59:01.398Z,94.20
